createdAt,value
2022-12-07T00:01:34.626Z,84.30
2022-12-07T00:04:32.388Z,84.00
2022-12-07T00:07:30.435Z,84.60
2022-12-07T00:10:28.205Z,85.20
2022-12-07T00:13:25.930Z,84.70
2022-12-07T00:16:25.730Z,84.00
2022-12-07T00:19:23.575Z,85.70
2022-12-07T00:22:21.240Z,86.20
2022-12-07T00:25:18.988Z,86.40
2022-12-07T00:28:16.870Z,85.60
2022-12-07T00:31:17.340Z,85.20
2022-12-07T00:34:18.357Z,86.00
2022-12-07T00:37:16.329Z,86.00
2022-12-07T00:40:14.179Z,86.40
2022-12-07T00:43:12.018Z,86.20
2022-12-07T00:46:10.676Z,86.70
2022-12-07T00:49:08.648Z,86.50
2022-12-07T00:52:06.512Z,87.00
2022-12-07T00:55:04.477Z,87.10
2022-12-07T00:58:02.276Z,86.70
2022-12-07T01:01:04.079Z,86.60
2022-12-07T01:04:02.933Z,86.20
2022-12-07T01:07:00.709Z,87.30
2022-12-07T01:09:58.520Z,86.30
2022-12-07T01:12:56.437Z,87.30
2022-12-07T01:15:58.069Z,87.50
2022-12-07T01:18:57.323Z,87.50
2022-12-07T01:21:55.149Z,87.40
2022-12-07T01:24:53.063Z,87.50
2022-12-07T01:27:50.851Z,87.00
2022-12-07T01:31:01.348Z,86.50
2022-12-07T01:34:01.315Z,86.50
2022-12-07T01:40:57.163Z,84.40
2022-12-07T01:44:12.953Z,86.20
2022-12-07T01:47:12.084Z,85.90
2022-12-07T01:50:10.431Z,85.20
2022-12-07T01:53:11.699Z,86.10
2022-12-07T01:56:12.436Z,86.20
2022-12-07T01:59:10.271Z,85.90
2022-12-07T02:02:17.935Z,86.40
2022-12-07T02:05:16.276Z,85.80
2022-12-07T02:08:14.941Z,86.10
2022-12-07T02:11:13.072Z,86.40
2022-12-07T02:14:10.954Z,87.00
2022-12-07T02:17:25.329Z,87.00
2022-12-07T02:20:31.270Z,86.40
2022-12-07T02:23:43.396Z,85.70
2022-12-07T02:27:03.505Z,86.10
2022-12-07T02:30:19.352Z,86.00
2022-12-07T02:33:32.856Z,86.00
2022-12-07T02:36:35.301Z,86.00
2022-12-07T02:39:45.855Z,85.80
2022-12-07T02:42:51.133Z,86.60
2022-12-07T02:45:51.822Z,86.10
2022-12-07T02:48:51.120Z,86.50
2022-12-07T02:51:48.925Z,85.90
2022-12-07T02:54:46.729Z,86.10
2022-12-07T02:57:59.119Z,85.20
2022-12-07T03:01:21.196Z,86.00
2022-12-07T03:04:34.607Z,86.00
2022-12-07T03:07:55.196Z,85.60
2022-12-07T03:11:00.392Z,85.30
2022-12-07T03:14:09.267Z,84.40
2022-12-07T03:17:28.383Z,83.30
2022-12-07T03:20:28.630Z,85.80
2022-12-07T03:23:28.358Z,84.10
2022-12-07T03:26:36.347Z,83.70
2022-12-07T03:29:39.695Z,83.90
2022-12-07T03:32:45.644Z,84.00
2022-12-07T03:35:53.040Z,83.70
2022-12-07T03:39:10.479Z,83.10
2022-12-07T03:42:09.914Z,83.20
2022-12-07T03:45:08.799Z,83.10
2022-12-07T03:48:40.055Z,82.80
2022-12-07T03:51:58.440Z,82.70
2022-12-07T03:55:07.984Z,82.10
2022-12-07T03:58:12.594Z,82.50
2022-12-07T04:01:10.674Z,82.10
2022-12-07T04:04:08.309Z,81.70
2022-12-07T04:07:06.313Z,80.60
2022-12-07T04:10:04.994Z,80.80
2022-12-07T04:13:03.173Z,80.90
2022-12-07T04:16:01.149Z,80.20
2022-12-07T04:18:59.110Z,80.80
2022-12-07T04:21:57.896Z,80.00
2022-12-07T04:24:55.739Z,79.80
2022-12-07T04:27:53.588Z,79.70
2022-12-07T04:30:51.343Z,79.30
2022-12-07T04:33:48.996Z,79.80
2022-12-07T04:36:48.363Z,81.00
2022-12-07T04:39:46.285Z,81.20
2022-12-07T04:42:44.001Z,81.90
2022-12-07T04:45:41.760Z,82.20
2022-12-07T04:48:39.452Z,86.30
2022-12-07T04:51:37.499Z,85.90
2022-12-07T04:54:35.396Z,84.90
2022-12-07T04:57:33.164Z,84.10
2022-12-07T05:00:30.818Z,83.80
2022-12-07T05:03:28.706Z,83.90
2022-12-07T05:06:27.153Z,83.60
2022-12-07T05:09:24.955Z,82.30
2022-12-07T05:12:22.634Z,82.90
2022-12-07T05:15:21.309Z,81.90
2022-12-07T05:18:19.390Z,85.30
2022-12-07T05:21:17.042Z,84.00
2022-12-07T05:24:16.304Z,82.40
2022-12-07T05:27:14.270Z,81.50
2022-12-07T05:30:12.344Z,80.70
2022-12-07T05:33:10.112Z,83.00
2022-12-07T05:36:08.787Z,82.10
2022-12-07T05:39:07.766Z,80.90
2022-12-07T05:42:21.157Z,80.10
2022-12-07T05:45:19.139Z,78.30
2022-12-07T05:48:17.024Z,78.30
2022-12-07T05:51:14.761Z,78.60
2022-12-07T05:54:12.733Z,79.50
2022-12-07T05:57:10.956Z,80.00
2022-12-07T06:00:09.226Z,78.60
2022-12-07T06:03:07.175Z,78.90
2022-12-07T06:06:05.131Z,78.30
2022-12-07T06:09:03.336Z,78.90
2022-12-07T06:12:16.946Z,77.60
2022-12-07T06:15:14.991Z,74.90
2022-12-07T06:18:12.864Z,74.70
2022-12-07T06:21:10.817Z,73.90
2022-12-07T06:24:08.865Z,74.70
2022-12-07T06:27:10.368Z,75.20
2022-12-07T06:30:10.204Z,78.20
2022-12-07T06:33:07.923Z,76.70
2022-12-07T06:36:06.308Z,78.30
2022-12-07T06:39:04.478Z,76.20
2022-12-07T06:42:02.487Z,77.70
2022-12-07T06:45:00.518Z,77.60
2022-12-07T06:47:58.281Z,81.30
2022-12-07T06:50:56.254Z,80.70
2022-12-07T06:53:54.171Z,78.10
2022-12-07T06:56:52.115Z,77.50
2022-12-07T06:59:49.860Z,77.40
2022-12-07T07:02:48.202Z,75.90
2022-12-07T07:05:46.643Z,74.80
2022-12-07T07:08:44.972Z,76.90
2022-12-07T07:11:42.767Z,77.30
2022-12-07T07:14:40.632Z,76.70
2022-12-07T07:17:38.388Z,77.40
2022-12-07T07:20:36.559Z,79.30
2022-12-07T07:23:34.676Z,81.70
2022-12-07T07:26:32.486Z,81.70
2022-12-07T07:29:30.331Z,82.50
2022-12-07T07:32:28.281Z,82.00
2022-12-07T07:35:27.440Z,81.30
2022-12-07T07:38:25.234Z,80.00
2022-12-07T07:41:23.196Z,79.70
2022-12-07T07:44:20.955Z,78.90
2022-12-07T07:47:19.021Z,78.80
2022-12-07T07:50:17.908Z,78.90
2022-12-07T07:53:15.567Z,77.70
2022-12-07T07:56:13.332Z,77.60
2022-12-07T07:59:11.067Z,78.30
2022-12-07T08:02:16.060Z,76.50
2022-12-07T08:05:14.807Z,76.90
2022-12-07T08:08:12.673Z,76.90
2022-12-07T08:11:11.418Z,77.00
2022-12-07T08:14:09.470Z,76.20
2022-12-07T08:17:07.180Z,75.90
2022-12-07T08:20:05.646Z,76.70
2022-12-07T08:23:04.296Z,76.90
2022-12-07T08:26:04.011Z,75.90
2022-12-07T08:29:01.713Z,75.90
2022-12-07T08:31:59.516Z,76.70
2022-12-07T08:34:57.254Z,77.20
2022-12-07T08:37:55.260Z,76.30
2022-12-07T08:41:03.789Z,76.70
2022-12-07T08:44:01.694Z,76.80
2022-12-07T08:47:04.386Z,76.30
2022-12-07T08:50:05.249Z,76.60
2022-12-07T08:53:04.548Z,76.80
2022-12-07T08:56:02.754Z,79.10
2022-12-07T08:59:00.868Z,79.70
2022-12-07T09:01:58.839Z,79.20
2022-12-07T09:04:56.730Z,78.20
2022-12-07T09:07:59.232Z,78.70
2022-12-07T09:10:57.042Z,78.20
2022-12-07T09:13:54.845Z,78.40
2022-12-07T09:16:52.644Z,77.30
2022-12-07T09:19:50.382Z,77.70
2022-12-07T09:22:48.444Z,77.30
2022-12-07T09:25:46.295Z,76.40
2022-12-07T09:28:44.295Z,76.50
2022-12-07T09:31:42.716Z,76.40
2022-12-07T09:34:40.626Z,77.20
2022-12-07T09:37:38.687Z,76.90
2022-12-07T09:40:36.371Z,76.60
2022-12-07T09:43:36.026Z,75.20
2022-12-07T09:46:40.236Z,76.70
2022-12-07T09:49:38.074Z,76.80
2022-12-07T09:52:39.039Z,75.80
2022-12-07T09:55:38.670Z,75.30
2022-12-07T09:58:36.629Z,76.40
2022-12-07T10:01:35.777Z,75.00
2022-12-07T10:04:33.618Z,75.80
2022-12-07T10:07:31.995Z,77.70
2022-12-07T10:10:38.306Z,80.60
2022-12-07T10:13:40.228Z,81.00
2022-12-07T10:16:42.952Z,81.20
2022-12-07T10:19:40.931Z,82.50
2022-12-07T10:22:38.868Z,82.00
2022-12-07T10:25:39.618Z,84.60
2022-12-07T10:28:42.130Z,83.60
2022-12-07T10:31:42.076Z,82.90
2022-12-07T10:34:43.362Z,82.20
2022-12-07T10:37:43.663Z,82.70
2022-12-07T10:40:46.331Z,83.20
2022-12-07T10:43:51.979Z,83.00
2022-12-07T10:47:02.645Z,83.50
2022-12-07T10:50:29.021Z,82.80
2022-12-07T10:53:57.672Z,82.40
2022-12-07T10:57:23.068Z,82.00
2022-12-07T11:00:25.880Z,82.50
2022-12-07T11:03:54.308Z,82.60
2022-12-07T11:07:02.195Z,81.90
2022-12-07T11:10:20.711Z,84.10
2022-12-07T11:13:41.405Z,86.00
2022-12-07T11:16:57.274Z,85.30
2022-12-07T11:20:06.555Z,86.00
2022-12-07T11:23:28.475Z,84.40
2022-12-07T11:26:48.462Z,85.00
2022-12-07T11:30:00.301Z,84.60
2022-12-07T11:33:09.753Z,84.30
2022-12-07T11:36:38.025Z,83.50
2022-12-07T11:39:42.757Z,82.60
2022-12-07T11:42:48.136Z,81.70
2022-12-07T11:45:53.252Z,83.60
2022-12-07T11:49:12.898Z,83.90
2022-12-07T11:52:24.268Z,84.60
2022-12-07T11:55:43.065Z,83.90
2022-12-07T11:58:50.949Z,84.20
2022-12-07T12:02:02.038Z,84.00
2022-12-07T12:05:15.430Z,84.70
2022-12-07T12:15:56.221Z,85.40
2022-12-07T12:19:29.527Z,87.30
2022-12-07T12:22:38.738Z,87.30
2022-12-07T12:25:56.307Z,87.40
2022-12-07T12:29:03.354Z,87.90
2022-12-07T12:32:22.947Z,88.10
2022-12-07T12:35:33.031Z,88.20
2022-12-07T12:38:35.109Z,87.50
2022-12-07T12:42:07.627Z,87.40
2022-12-07T12:45:27.326Z,87.50
2022-12-07T12:48:38.453Z,88.10
2022-12-07T12:51:40.660Z,87.70
2022-12-07T12:54:39.742Z,87.40
2022-12-07T12:57:38.126Z,86.30
2022-12-07T13:00:36.226Z,86.30
2022-12-07T13:03:35.806Z,85.40
2022-12-07T13:06:40.465Z,84.00
2022-12-07T13:09:38.551Z,84.40
2022-12-07T13:12:42.957Z,82.80
2022-12-07T13:15:57.091Z,81.60
2022-12-07T13:18:54.888Z,80.40
2022-12-07T13:21:52.842Z,81.50
2022-12-07T13:24:50.822Z,81.20
2022-12-07T13:27:57.401Z,80.90
2022-12-07T13:31:06.357Z,81.00
2022-12-07T13:34:06.059Z,81.70
2022-12-07T13:37:15.677Z,81.90
2022-12-07T13:40:21.400Z,82.00
2022-12-07T13:43:19.726Z,82.00
2022-12-07T13:46:19.228Z,81.70
2022-12-07T13:49:25.378Z,81.60
2022-12-07T13:52:26.896Z,81.00
2022-12-07T13:55:26.786Z,80.70
2022-12-07T13:58:25.281Z,80.30
2022-12-07T14:01:23.308Z,80.60
2022-12-07T14:04:36.185Z,80.90
2022-12-07T14:07:36.039Z,81.00
2022-12-07T14:10:38.261Z,81.30
2022-12-07T14:13:46.042Z,81.00
2022-12-07T14:16:44.079Z,79.70
2022-12-07T14:20:01.091Z,80.60
2022-12-07T14:22:59.023Z,80.40
2022-12-07T14:26:21.685Z,79.70
2022-12-07T14:29:35.254Z,79.60
2022-12-07T14:32:34.189Z,79.10
2022-12-07T14:35:33.595Z,79.10
2022-12-07T14:38:31.687Z,80.70
2022-12-07T14:41:45.081Z,80.60
2022-12-07T14:44:42.891Z,82.10
2022-12-07T14:54:20.014Z,82.20
2022-12-07T14:57:18.182Z,83.90
2022-12-07T15:00:19.733Z,87.30
2022-12-07T15:03:19.093Z,86.70
2022-12-07T15:06:20.097Z,86.30
2022-12-07T15:09:17.844Z,86.90
2022-12-07T15:12:16.079Z,86.10
2022-12-07T15:15:14.480Z,86.10
2022-12-07T15:18:13.564Z,86.10
2022-12-07T15:21:18.582Z,86.00
2022-12-07T15:24:16.572Z,85.90
2022-12-07T15:27:14.412Z,85.70
2022-12-07T15:30:12.615Z,86.50
2022-12-07T15:33:12.078Z,88.20
2022-12-07T15:36:17.296Z,86.30
2022-12-07T15:39:15.716Z,85.70
2022-12-07T15:42:14.241Z,86.10
2022-12-07T15:45:12.351Z,86.10
2022-12-07T15:48:28.374Z,85.70
2022-12-07T15:51:27.099Z,86.20
2022-12-07T15:54:27.792Z,86.20
2022-12-07T15:57:26.090Z,85.70
2022-12-07T16:00:23.982Z,85.50
2022-12-07T16:03:21.769Z,85.60
2022-12-07T16:06:22.020Z,84.60
2022-12-07T16:09:20.863Z,85.60
2022-12-07T16:12:19.007Z,85.60
2022-12-07T16:15:21.423Z,85.60
2022-12-07T16:18:23.413Z,85.60
2022-12-07T16:21:25.151Z,85.60
2022-12-07T16:24:23.471Z,86.00
2022-12-07T16:27:21.502Z,86.50
2022-12-07T16:30:19.739Z,87.30
2022-12-07T16:33:17.665Z,87.90
2022-12-07T16:36:34.356Z,86.20
2022-12-07T16:39:35.974Z,84.80
2022-12-07T16:42:36.115Z,86.40
2022-12-07T16:45:34.026Z,85.50
2022-12-07T16:48:32.024Z,84.60
2022-12-07T16:51:29.798Z,86.00
2022-12-07T16:54:27.619Z,86.80
2022-12-07T16:57:25.721Z,85.40
2022-12-07T17:00:23.680Z,86.30
2022-12-07T17:03:21.761Z,86.00
2022-12-07T17:06:23.421Z,83.80
2022-12-07T17:09:21.903Z,84.70
2022-12-07T17:12:20.187Z,85.50
2022-12-07T17:15:18.605Z,84.60
2022-12-07T17:18:16.742Z,84.40
2022-12-07T17:21:14.548Z,85.40
2022-12-07T17:24:15.519Z,85.20
2022-12-07T17:27:13.400Z,83.00
2022-12-07T17:30:11.816Z,83.80
2022-12-07T17:33:09.940Z,83.90
2022-12-07T17:36:17.584Z,84.60
2022-12-07T17:39:19.382Z,84.70
2022-12-07T17:42:32.691Z,85.30
2022-12-07T17:45:30.371Z,85.80
2022-12-07T17:48:28.350Z,85.90
2022-12-07T17:51:41.936Z,87.00
2022-12-07T17:54:39.862Z,87.40
2022-12-07T17:57:37.812Z,86.60
2022-12-07T18:00:38.960Z,85.80
2022-12-07T18:03:37.039Z,86.00
2022-12-07T18:06:35.508Z,86.00
2022-12-07T18:09:33.618Z,85.60
2022-12-07T18:12:35.013Z,85.10
2022-12-07T18:15:32.804Z,86.50
2022-12-07T18:18:31.087Z,85.90
2022-12-07T18:21:31.332Z,85.20
2022-12-07T18:24:36.233Z,85.40
2022-12-07T18:27:34.753Z,86.30
2022-12-07T18:31:12.706Z,87.20
2022-12-07T18:33:50.371Z,88.20
2022-12-07T18:36:51.905Z,87.90
2022-12-07T18:39:50.846Z,88.50
2022-12-07T18:42:48.814Z,88.80
2022-12-07T18:45:55.777Z,88.70
2022-12-07T18:48:54.227Z,86.90
2022-12-07T18:51:52.038Z,89.50
2022-12-07T18:54:50.137Z,88.40
2022-12-07T18:57:50.238Z,89.50
2022-12-07T19:00:48.051Z,88.30
2022-12-07T19:03:45.862Z,88.30
2022-12-07T19:06:45.194Z,88.30
2022-12-07T19:09:43.112Z,87.60
2022-12-07T19:12:41.703Z,88.60
2022-12-07T19:15:42.224Z,87.60
2022-12-07T19:18:39.977Z,88.20
2022-12-07T19:21:37.923Z,88.60
2022-12-07T19:24:36.547Z,88.50
2022-12-07T19:27:35.084Z,88.10
2022-12-07T19:30:32.972Z,88.80
2022-12-07T19:33:30.639Z,89.40
2022-12-07T19:36:29.746Z,89.00
2022-12-07T19:39:27.979Z,88.90
2022-12-07T19:42:25.770Z,89.10
2022-12-07T19:45:23.547Z,88.70
2022-12-07T19:48:21.375Z,87.30
2022-12-07T19:51:19.303Z,87.00
2022-12-07T19:54:18.724Z,86.90
2022-12-07T19:57:18.544Z,86.40
2022-12-07T20:00:16.519Z,85.80
2022-12-07T20:03:14.258Z,86.00
2022-12-07T20:06:19.995Z,87.70
2022-12-07T20:09:18.029Z,88.10
2022-12-07T20:12:31.050Z,88.90
2022-12-07T20:15:28.600Z,89.20
2022-12-07T20:18:26.551Z,88.90
2022-12-07T20:21:25.062Z,89.00
2022-12-07T20:24:25.826Z,89.70
2022-12-07T20:27:23.711Z,91.40
2022-12-07T20:30:21.510Z,90.90
2022-12-07T20:33:20.136Z,91.00
2022-12-07T20:36:19.496Z,90.50
2022-12-07T20:39:17.494Z,90.80
2022-12-07T20:42:30.619Z,89.80
2022-12-07T20:45:28.207Z,90.30
2022-12-07T20:48:26.905Z,90.10
2022-12-07T20:51:24.719Z,90.10
2022-12-07T20:54:22.666Z,90.90
2022-12-07T20:57:20.307Z,90.50
2022-12-07T21:00:18.341Z,90.40
2022-12-07T21:03:16.004Z,91.80
2022-12-07T21:06:16.947Z,91.80
2022-12-07T21:09:14.834Z,91.70
2022-12-07T21:12:12.832Z,91.20
2022-12-07T21:15:10.914Z,90.80
2022-12-07T21:18:08.617Z,90.10
2022-12-07T21:21:09.381Z,89.90
2022-12-07T21:24:08.868Z,90.20
2022-12-07T21:27:07.153Z,91.00
2022-12-07T21:30:05.584Z,90.00
2022-12-07T21:33:03.510Z,89.50
2022-12-07T21:36:03.366Z,90.70
2022-12-07T21:39:01.264Z,90.80
2022-12-07T21:41:58.908Z,90.20
2022-12-07T21:44:56.647Z,90.60
2022-12-07T21:47:54.320Z,89.90
2022-12-07T21:50:53.162Z,90.00
2022-12-07T21:53:52.888Z,89.30
2022-12-07T21:56:51.571Z,88.10
2022-12-07T21:59:49.591Z,89.00
2022-12-07T22:02:47.412Z,88.00
2022-12-07T22:05:45.109Z,87.90
2022-12-07T22:08:44.248Z,87.70
2022-12-07T22:11:42.232Z,87.10
2022-12-07T22:14:55.205Z,88.10
2022-12-07T22:17:53.025Z,87.80
2022-12-07T22:20:54.604Z,86.90
2022-12-07T22:23:55.298Z,87.60
2022-12-07T22:26:53.047Z,88.30
2022-12-07T22:29:50.894Z,87.40
2022-12-07T22:32:49.579Z,88.00
2022-12-07T22:35:53.703Z,87.70
2022-12-07T22:38:51.549Z,86.20
2022-12-07T22:41:49.429Z,86.70
2022-12-07T22:44:47.609Z,87.50
2022-12-07T22:47:45.522Z,85.50
2022-12-07T22:50:43.278Z,87.50
2022-12-07T22:53:41.029Z,89.10
2022-12-07T22:56:39.027Z,90.00
2022-12-07T22:59:36.683Z,90.10
2022-12-07T23:02:34.458Z,89.40
2022-12-07T23:05:32.319Z,89.40
2022-12-07T23:08:30.179Z,88.50
2022-12-07T23:11:47.064Z,87.40
2022-12-07T23:14:44.999Z,88.40
2022-12-07T23:17:42.811Z,88.30
2022-12-07T23:20:40.698Z,87.70
2022-12-07T23:23:38.383Z,89.40
2022-12-07T23:26:36.787Z,89.40
2022-12-07T23:29:34.501Z,90.50
2022-12-07T23:32:32.412Z,89.10
2022-12-07T23:35:30.089Z,88.50
2022-12-07T23:38:27.905Z,88.90
2022-12-07T23:41:28.137Z,89.20
2022-12-07T23:44:27.248Z,88.50
2022-12-07T23:47:25.047Z,89.10
2022-12-07T23:50:22.850Z,89.40
2022-12-07T23:53:20.526Z,88.40
2022-12-07T23:56:21.209Z,87.40
2022-12-07T23:59:19.264Z,86.80
